sensor_id;sensor_type;location;lat;lon;timestamp;temperature;humidity
66568;DHT22;53422;49.296;6.900;2022-09-03T00:00:20;20.50;45.50
66568;DHT22;53422;49.296;6.900;2022-09-03T00:03:07;20.50;45.60
66568;DHT22;53422;49.296;6.900;2022-09-03T00:05:45;20.50;45.80
66568;DHT22;53422;49.296;6.900;2022-09-03T00:11:50;20.50;45.70
66568;DHT22;53422;49.296;6.900;2022-09-03T00:16:50;20.40;45.80
66568;DHT22;53422;49.296;6.900;2022-09-03T00:19:21;20.50;45.90
66568;DHT22;53422;49.296;6.900;2022-09-03T00:21:54;20.50;45.90
66568;DHT22;53422;49.296;6.900;2022-09-03T00:24:25;20.50;46.00
66568;DHT22;53422;49.296;6.900;2022-09-03T00:26:56;20.50;46.00
66568;DHT22;53422;49.296;6.900;2022-09-03T00:29:34;20.50;46.10
66568;DHT22;53422;49.296;6.900;2022-09-03T00:32:13;20.50;46.10
66568;DHT22;53422;49.296;6.900;2022-09-03T00:34:46;20.50;46.10
66568;DHT22;53422;49.296;6.900;2022-09-03T00:37:13;20.50;46.20
66568;DHT22;53422;49.296;6.900;2022-09-03T00:39:39;20.50;46.30
66568;DHT22;53422;49.296;6.900;2022-09-03T00:45:05;20.50;46.40
66568;DHT22;53422;49.296;6.900;2022-09-03T01:01:39;20.40;46.50
66568;DHT22;53422;49.296;6.900;2022-09-03T01:12:31;20.40;46.50
66568;DHT22;53422;49.296;6.900;2022-09-03T01:23:39;20.40;46.80
66568;DHT22;53422;49.296;6.900;2022-09-03T01:26:26;20.40;46.80
66568;DHT22;53422;49.296;6.900;2022-09-03T01:29:17;20.40;46.90
66568;DHT22;53422;49.296;6.900;2022-09-03T01:32:18;20.40;47.00
66568;DHT22;53422;49.296;6.900;2022-09-03T01:45:49;20.40;47.70
66568;DHT22;53422;49.296;6.900;2022-09-03T01:49:01;20.40;48.00
66568;DHT22;53422;49.296;6.900;2022-09-03T01:51:30;20.30;47.70
66568;DHT22;53422;49.296;6.900;2022-09-03T02:02:28;20.30;48.10
66568;DHT22;53422;49.296;6.900;2022-09-03T02:07:33;20.30;48.20
66568;DHT22;53422;49.296;6.900;2022-09-03T02:10:02;20.30;48.20
66568;DHT22;53422;49.296;6.900;2022-09-03T02:12:30;20.30;48.00
66568;DHT22;53422;49.296;6.900;2022-09-03T02:15:00;20.30;48.00
66568;DHT22;53422;49.296;6.900;2022-09-03T02:17:30;20.20;48.20
66568;DHT22;53422;49.296;6.900;2022-09-03T02:19:56;20.20;48.10
66568;DHT22;53422;49.296;6.900;2022-09-03T02:22:22;20.20;48.20
66568;DHT22;53422;49.296;6.900;2022-09-03T02:24:48;20.20;48.30
66568;DHT22;53422;49.296;6.900;2022-09-03T02:27:14;20.20;48.10
66568;DHT22;53422;49.296;6.900;2022-09-03T02:29:40;20.20;48.20
66568;DHT22;53422;49.296;6.900;2022-09-03T02:32:05;20.20;48.40
66568;DHT22;53422;49.296;6.900;2022-09-03T02:34:31;20.20;48.20
66568;DHT22;53422;49.296;6.900;2022-09-03T02:36:57;20.20;48.30
66568;DHT22;53422;49.296;6.900;2022-09-03T02:39:22;20.20;48.30
66568;DHT22;53422;49.296;6.900;2022-09-03T02:41:54;20.20;48.30
66568;DHT22;53422;49.296;6.900;2022-09-03T02:44:27;20.20;48.40
66568;DHT22;53422;49.296;6.900;2022-09-03T02:47:06;20.10;48.20
66568;DHT22;53422;49.296;6.900;2022-09-03T02:49:32;20.10;48.30
66568;DHT22;53422;49.296;6.900;2022-09-03T02:52:03;20.20;48.60
66568;DHT22;53422;49.296;6.900;2022-09-03T02:54:35;20.10;48.70
66568;DHT22;53422;49.296;6.900;2022-09-03T02:57:07;20.10;48.90
66568;DHT22;53422;49.296;6.900;2022-09-03T02:59:33;20.10;48.70
66568;DHT22;53422;49.296;6.900;2022-09-03T03:01:59;20.10;48.80
66568;DHT22;53422;49.296;6.900;2022-09-03T03:04:25;20.10;48.90
66568;DHT22;53422;49.296;6.900;2022-09-03T03:06:51;20.10;48.80
66568;DHT22;53422;49.296;6.900;2022-09-03T03:09:17;20.10;48.90
66568;DHT22;53422;49.296;6.900;2022-09-03T03:11:42;20.10;48.90
66568;DHT22;53422;49.296;6.900;2022-09-03T03:14:08;20.10;49.10
66568;DHT22;53422;49.296;6.900;2022-09-03T03:16:35;20.10;49.10
66568;DHT22;53422;49.296;6.900;2022-09-03T03:19:00;20.00;49.30
66568;DHT22;53422;49.296;6.900;2022-09-03T03:21:26;20.00;49.30
66568;DHT22;53422;49.296;6.900;2022-09-03T03:23:52;20.00;49.70
66568;DHT22;53422;49.296;6.900;2022-09-03T03:26:19;20.00;49.30
66568;DHT22;53422;49.296;6.900;2022-09-03T03:28:46;20.00;49.40
66568;DHT22;53422;49.296;6.900;2022-09-03T03:31:15;20.00;49.20
66568;DHT22;53422;49.296;6.900;2022-09-03T03:33:41;19.90;49.20
66568;DHT22;53422;49.296;6.900;2022-09-03T03:36:09;20.00;49.20
66568;DHT22;53422;49.296;6.900;2022-09-03T03:38:36;19.90;49.50
66568;DHT22;53422;49.296;6.900;2022-09-03T03:41:19;19.80;50.20
66568;DHT22;53422;49.296;6.900;2022-09-03T03:43:52;19.80;49.80
66568;DHT22;53422;49.296;6.900;2022-09-03T03:46:20;19.90;49.80
66568;DHT22;53422;49.296;6.900;2022-09-03T03:48:47;19.80;49.80
66568;DHT22;53422;49.296;6.900;2022-09-03T03:51:13;19.90;49.90
66568;DHT22;53422;49.296;6.900;2022-09-03T03:53:38;19.90;49.70
66568;DHT22;53422;49.296;6.900;2022-09-03T03:56:10;20.00;49.90
66568;DHT22;53422;49.296;6.900;2022-09-03T03:58:36;20.00;50.00
66568;DHT22;53422;49.296;6.900;2022-09-03T04:01:16;20.00;50.00
66568;DHT22;53422;49.296;6.900;2022-09-03T04:03:43;20.00;49.90
66568;DHT22;53422;49.296;6.900;2022-09-03T04:06:10;19.90;50.50
66568;DHT22;53422;49.296;6.900;2022-09-03T04:08:38;19.80;51.10
66568;DHT22;53422;49.296;6.900;2022-09-03T04:11:06;19.80;51.80
66568;DHT22;53422;49.296;6.900;2022-09-03T04:13:34;19.80;53.10
66568;DHT22;53422;49.296;6.900;2022-09-03T04:16:08;19.80;52.10
66568;DHT22;53422;49.296;6.900;2022-09-03T04:18:35;19.90;52.10
66568;DHT22;53422;49.296;6.900;2022-09-03T04:21:02;19.90;52.90
66568;DHT22;53422;49.296;6.900;2022-09-03T04:23:32;19.90;52.20
66568;DHT22;53422;49.296;6.900;2022-09-03T04:25:58;19.90;53.10
66568;DHT22;53422;49.296;6.900;2022-09-03T04:28:24;19.90;54.30
66568;DHT22;53422;49.296;6.900;2022-09-03T04:30:50;19.90;54.10
66568;DHT22;53422;49.296;6.900;2022-09-03T04:33:15;19.90;54.00
66568;DHT22;53422;49.296;6.900;2022-09-03T04:35:41;19.90;55.80
66568;DHT22;53422;49.296;6.900;2022-09-03T04:38:07;19.90;56.10
66568;DHT22;53422;49.296;6.900;2022-09-03T04:40:33;19.90;54.60
66568;DHT22;53422;49.296;6.900;2022-09-03T04:42:59;19.90;54.90
66568;DHT22;53422;49.296;6.900;2022-09-03T04:45:25;19.80;55.10
66568;DHT22;53422;49.296;6.900;2022-09-03T04:47:59;19.80;56.00
66568;DHT22;53422;49.296;6.900;2022-09-03T04:50:25;19.80;56.10
66568;DHT22;53422;49.296;6.900;2022-09-03T04:52:53;19.80;57.00
66568;DHT22;53422;49.296;6.900;2022-09-03T04:55:21;19.70;58.70
66568;DHT22;53422;49.296;6.900;2022-09-03T04:57:47;19.70;58.00
66568;DHT22;53422;49.296;6.900;2022-09-03T05:00:13;19.80;58.00
66568;DHT22;53422;49.296;6.900;2022-09-03T05:02:38;19.70;57.40
66568;DHT22;53422;49.296;6.900;2022-09-03T05:05:04;19.80;56.10
66568;DHT22;53422;49.296;6.900;2022-09-03T05:07:30;19.80;55.80
66568;DHT22;53422;49.296;6.900;2022-09-03T05:10:05;19.80;56.10
66568;DHT22;53422;49.296;6.900;2022-09-03T05:12:31;19.80;56.40
66568;DHT22;53422;49.296;6.900;2022-09-03T05:14:57;19.80;57.40
66568;DHT22;53422;49.296;6.900;2022-09-03T05:17:24;19.80;56.60
66568;DHT22;53422;49.296;6.900;2022-09-03T05:19:50;19.70;56.70
66568;DHT22;53422;49.296;6.900;2022-09-03T05:22:17;19.80;56.90
66568;DHT22;53422;49.296;6.900;2022-09-03T05:24:46;19.80;57.60
66568;DHT22;53422;49.296;6.900;2022-09-03T05:27:13;19.80;56.90
66568;DHT22;53422;49.296;6.900;2022-09-03T05:29:44;19.80;56.90
66568;DHT22;53422;49.296;6.900;2022-09-03T05:32:10;19.80;56.50
66568;DHT22;53422;49.296;6.900;2022-09-03T05:34:37;19.80;56.60
66568;DHT22;53422;49.296;6.900;2022-09-03T05:37:03;19.80;56.40
66568;DHT22;53422;49.296;6.900;2022-09-03T05:39:29;19.80;56.60
66568;DHT22;53422;49.296;6.900;2022-09-03T05:41:54;19.80;57.00
66568;DHT22;53422;49.296;6.900;2022-09-03T05:44:20;19.80;57.00
66568;DHT22;53422;49.296;6.900;2022-09-03T05:46:48;19.80;56.00
66568;DHT22;53422;49.296;6.900;2022-09-03T05:49:14;19.80;56.30
66568;DHT22;53422;49.296;6.900;2022-09-03T05:51:40;19.80;57.20
66568;DHT22;53422;49.296;6.900;2022-09-03T05:54:07;19.80;57.10
66568;DHT22;53422;49.296;6.900;2022-09-03T05:56:34;19.70;56.60
66568;DHT22;53422;49.296;6.900;2022-09-03T05:59:02;19.80;57.20
66568;DHT22;53422;49.296;6.900;2022-09-03T06:01:35;19.80;57.10
66568;DHT22;53422;49.296;6.900;2022-09-03T06:04:09;19.80;58.90
66568;DHT22;53422;49.296;6.900;2022-09-03T06:06:37;19.70;60.00
66568;DHT22;53422;49.296;6.900;2022-09-03T06:09:11;19.70;59.10
66568;DHT22;53422;49.296;6.900;2022-09-03T06:11:39;19.70;60.00
66568;DHT22;53422;49.296;6.900;2022-09-03T06:14:09;19.80;58.90
66568;DHT22;53422;49.296;6.900;2022-09-03T06:16:41;19.80;59.40
66568;DHT22;53422;49.296;6.900;2022-09-03T06:19:08;19.80;59.40
66568;DHT22;53422;49.296;6.900;2022-09-03T06:21:39;19.80;59.00
66568;DHT22;53422;49.296;6.900;2022-09-03T06:24:08;19.70;61.20
66568;DHT22;53422;49.296;6.900;2022-09-03T06:26:34;19.80;60.60
66568;DHT22;53422;49.296;6.900;2022-09-03T06:29:00;19.70;59.60
66568;DHT22;53422;49.296;6.900;2022-09-03T06:31:26;19.70;60.40
66568;DHT22;53422;49.296;6.900;2022-09-03T06:33:51;19.70;64.10
66568;DHT22;53422;49.296;6.900;2022-09-03T06:36:20;19.70;61.50
66568;DHT22;53422;49.296;6.900;2022-09-03T06:38:50;19.70;60.20
66568;DHT22;53422;49.296;6.900;2022-09-03T06:41:17;19.80;61.30
66568;DHT22;53422;49.296;6.900;2022-09-03T06:43:46;19.80;60.80
66568;DHT22;53422;49.296;6.900;2022-09-03T06:46:17;19.80;61.80
66568;DHT22;53422;49.296;6.900;2022-09-03T06:48:43;19.80;62.10
66568;DHT22;53422;49.296;6.900;2022-09-03T06:51:12;19.80;62.90
66568;DHT22;53422;49.296;6.900;2022-09-03T06:53:41;19.80;61.20
66568;DHT22;53422;49.296;6.900;2022-09-03T06:56:12;19.80;61.90
66568;DHT22;53422;49.296;6.900;2022-09-03T06:58:42;19.80;62.00
66568;DHT22;53422;49.296;6.900;2022-09-03T07:01:16;19.90;62.90
66568;DHT22;53422;49.296;6.900;2022-09-03T07:03:45;19.80;61.60
66568;DHT22;53422;49.296;6.900;2022-09-03T07:06:16;19.90;62.20
66568;DHT22;53422;49.296;6.900;2022-09-03T07:08:42;19.90;61.70
66568;DHT22;53422;49.296;6.900;2022-09-03T07:11:14;19.90;61.10
66568;DHT22;53422;49.296;6.900;2022-09-03T07:13:43;20.00;62.50
66568;DHT22;53422;49.296;6.900;2022-09-03T07:16:18;20.00;62.40
66568;DHT22;53422;49.296;6.900;2022-09-03T07:18:44;20.00;62.60
66568;DHT22;53422;49.296;6.900;2022-09-03T07:21:12;20.00;62.30
66568;DHT22;53422;49.296;6.900;2022-09-03T07:23:37;20.10;61.60
66568;DHT22;53422;49.296;6.900;2022-09-03T07:26:06;20.10;66.20
66568;DHT22;53422;49.296;6.900;2022-09-03T07:28:34;20.10;64.50
66568;DHT22;53422;49.296;6.900;2022-09-03T07:31:04;20.10;68.90
66568;DHT22;53422;49.296;6.900;2022-09-03T07:33:31;20.10;65.10
66568;DHT22;53422;49.296;6.900;2022-09-03T07:36:05;20.20;63.80
66568;DHT22;53422;49.296;6.900;2022-09-03T07:38:33;20.20;64.10
66568;DHT22;53422;49.296;6.900;2022-09-03T07:40:59;20.30;66.70
66568;DHT22;53422;49.296;6.900;2022-09-03T07:43:27;20.30;65.70
66568;DHT22;53422;49.296;6.900;2022-09-03T07:45:54;20.30;63.30
66568;DHT22;53422;49.296;6.900;2022-09-03T07:48:20;20.40;62.50
66568;DHT22;53422;49.296;6.900;2022-09-03T07:50:45;20.40;65.10
66568;DHT22;53422;49.296;6.900;2022-09-03T07:53:12;20.40;74.70
66568;DHT22;53422;49.296;6.900;2022-09-03T07:55:38;20.50;71.10
66568;DHT22;53422;49.296;6.900;2022-09-03T07:58:04;20.60;73.00
66568;DHT22;53422;49.296;6.900;2022-09-03T08:00:30;20.60;70.70
66568;DHT22;53422;49.296;6.900;2022-09-03T08:02:58;20.70;72.50
66568;DHT22;53422;49.296;6.900;2022-09-03T08:05:31;20.70;71.90
66568;DHT22;53422;49.296;6.900;2022-09-03T08:07:59;20.70;71.70
66568;DHT22;53422;49.296;6.900;2022-09-03T08:10:26;20.80;69.80
66568;DHT22;53422;49.296;6.900;2022-09-03T08:12:55;20.90;69.00
66568;DHT22;53422;49.296;6.900;2022-09-03T08:15:20;21.00;71.20
66568;DHT22;53422;49.296;6.900;2022-09-03T08:17:46;21.10;74.40
66568;DHT22;53422;49.296;6.900;2022-09-03T08:20:11;21.10;72.90
66568;DHT22;53422;49.296;6.900;2022-09-03T08:22:37;21.20;73.10
66568;DHT22;53422;49.296;6.900;2022-09-03T08:25:03;21.20;73.90
66568;DHT22;53422;49.296;6.900;2022-09-03T08:27:30;21.30;72.70
66568;DHT22;53422;49.296;6.900;2022-09-03T08:29:56;21.30;72.30
66568;DHT22;53422;49.296;6.900;2022-09-03T08:32:21;21.40;72.80
66568;DHT22;53422;49.296;6.900;2022-09-03T08:34:47;21.30;74.60
66568;DHT22;53422;49.296;6.900;2022-09-03T08:37:13;21.40;73.40
66568;DHT22;53422;49.296;6.900;2022-09-03T08:39:38;21.50;74.60
66568;DHT22;53422;49.296;6.900;2022-09-03T08:42:28;21.50;74.10
66568;DHT22;53422;49.296;6.900;2022-09-03T08:44:59;21.50;74.00
66568;DHT22;53422;49.296;6.900;2022-09-03T08:50:08;21.70;73.40
66568;DHT22;53422;49.296;6.900;2022-09-03T08:58:07;21.80;74.90
66568;DHT22;53422;49.296;6.900;2022-09-03T09:12:34;22.10;70.50
66568;DHT22;53422;49.296;6.900;2022-09-03T09:20:22;22.20;71.80
66568;DHT22;53422;49.296;6.900;2022-09-03T09:23:00;22.20;71.70
66568;DHT22;53422;49.296;6.900;2022-09-03T09:25:26;22.20;72.10
66568;DHT22;53422;49.296;6.900;2022-09-03T09:27:58;22.10;66.90
66568;DHT22;53422;49.296;6.900;2022-09-03T09:30:28;21.90;73.60
66568;DHT22;53422;49.296;6.900;2022-09-03T09:32:54;21.80;74.80
66568;DHT22;53422;49.296;6.900;2022-09-03T09:35:20;21.60;76.20
66568;DHT22;53422;49.296;6.900;2022-09-03T09:37:54;21.50;76.40
66568;DHT22;53422;49.296;6.900;2022-09-03T09:40:31;21.60;76.80
66568;DHT22;53422;49.296;6.900;2022-09-03T09:43:17;21.80;76.40
66568;DHT22;53422;49.296;6.900;2022-09-03T09:45:47;21.70;76.40
66568;DHT22;53422;49.296;6.900;2022-09-03T09:48:30;21.60;76.90
66568;DHT22;53422;49.296;6.900;2022-09-03T09:51:43;21.60;76.60
66568;DHT22;53422;49.296;6.900;2022-09-03T09:54:14;21.80;77.90
66568;DHT22;53422;49.296;6.900;2022-09-03T09:56:45;21.80;77.30
66568;DHT22;53422;49.296;6.900;2022-09-03T09:59:12;21.90;77.60
66568;DHT22;53422;49.296;6.900;2022-09-03T10:01:41;22.00;76.70
66568;DHT22;53422;49.296;6.900;2022-09-03T10:04:30;22.10;76.30
66568;DHT22;53422;49.296;6.900;2022-09-03T10:07:17;22.30;76.80
66568;DHT22;53422;49.296;6.900;2022-09-03T10:10:04;22.30;75.00
66568;DHT22;53422;49.296;6.900;2022-09-03T10:12:43;22.30;74.00
66568;DHT22;53422;49.296;6.900;2022-09-03T10:15:34;22.20;74.30
66568;DHT22;53422;49.296;6.900;2022-09-03T10:18:11;22.40;74.00
66568;DHT22;53422;49.296;6.900;2022-09-03T10:20:50;22.40;74.30
66568;DHT22;53422;49.296;6.900;2022-09-03T10:23:24;22.40;74.70
66568;DHT22;53422;49.296;6.900;2022-09-03T10:26:14;22.40;74.90
66568;DHT22;53422;49.296;6.900;2022-09-03T10:28:44;22.40;74.60
66568;DHT22;53422;49.296;6.900;2022-09-03T10:40:33;23.00;73.60
66568;DHT22;53422;49.296;6.900;2022-09-03T10:46:02;23.40;70.80
66568;DHT22;53422;49.296;6.900;2022-09-03T10:51:26;23.50;69.50
66568;DHT22;53422;49.296;6.900;2022-09-03T11:02:34;23.50;68.90
66568;DHT22;53422;49.296;6.900;2022-09-03T11:05:21;23.40;69.20
66568;DHT22;53422;49.296;6.900;2022-09-03T11:07:55;23.50;68.00
66568;DHT22;53422;49.296;6.900;2022-09-03T11:10:32;23.50;68.50
66568;DHT22;53422;49.296;6.900;2022-09-03T11:13:09;23.60;67.50
66568;DHT22;53422;49.296;6.900;2022-09-03T11:15:48;23.50;68.40
66568;DHT22;53422;49.296;6.900;2022-09-03T11:20:55;23.50;69.20
66568;DHT22;53422;49.296;6.900;2022-09-03T11:23:28;23.60;70.00
66568;DHT22;53422;49.296;6.900;2022-09-03T11:26:01;23.70;68.90
66568;DHT22;53422;49.296;6.900;2022-09-03T11:28:42;23.90;67.50
66568;DHT22;53422;49.296;6.900;2022-09-03T11:34:28;23.80;65.90
66568;DHT22;53422;49.296;6.900;2022-09-03T11:39:51;23.90;66.20
66568;DHT22;53422;49.296;6.900;2022-09-03T11:44:59;23.70;66.80
66568;DHT22;53422;49.296;6.900;2022-09-03T11:47:42;23.70;67.10
66568;DHT22;53422;49.296;6.900;2022-09-03T11:50:32;23.90;67.60
66568;DHT22;53422;49.296;6.900;2022-09-03T11:53:33;24.10;67.30
66568;DHT22;53422;49.296;6.900;2022-09-03T11:58:29;24.10;66.60
66568;DHT22;53422;49.296;6.900;2022-09-03T12:00:56;24.10;66.90
66568;DHT22;53422;49.296;6.900;2022-09-03T12:03:26;24.20;66.40
66568;DHT22;53422;49.296;6.900;2022-09-03T12:09:03;24.10;65.00
66568;DHT22;53422;49.296;6.900;2022-09-03T12:17:35;24.20;63.70
66568;DHT22;53422;49.296;6.900;2022-09-03T12:20:12;24.20;62.70
66568;DHT22;53422;49.296;6.900;2022-09-03T12:22:38;24.20;62.80
66568;DHT22;53422;49.296;6.900;2022-09-03T12:25:12;24.30;62.10
66568;DHT22;53422;49.296;6.900;2022-09-03T12:27:41;24.20;62.00
66568;DHT22;53422;49.296;6.900;2022-09-03T12:30:15;24.10;62.70
66568;DHT22;53422;49.296;6.900;2022-09-03T12:32:42;24.00;62.90
66568;DHT22;53422;49.296;6.900;2022-09-03T12:37:41;23.80;63.60
66568;DHT22;53422;49.296;6.900;2022-09-03T12:40:19;23.70;64.20
66568;DHT22;53422;49.296;6.900;2022-09-03T12:42:46;23.60;64.80
66568;DHT22;53422;49.296;6.900;2022-09-03T12:45:12;23.50;65.30
66568;DHT22;53422;49.296;6.900;2022-09-03T12:47:41;23.40;65.60
66568;DHT22;53422;49.296;6.900;2022-09-03T12:50:08;23.50;65.70
66568;DHT22;53422;49.296;6.900;2022-09-03T13:00:47;24.40;62.60
66568;DHT22;53422;49.296;6.900;2022-09-03T13:03:21;24.40;62.50
66568;DHT22;53422;49.296;6.900;2022-09-03T13:05:53;24.40;63.20
66568;DHT22;53422;49.296;6.900;2022-09-03T13:08:28;24.40;62.90
66568;DHT22;53422;49.296;6.900;2022-09-03T13:11:00;24.30;63.00
66568;DHT22;53422;49.296;6.900;2022-09-03T13:13:31;24.20;65.20
66568;DHT22;53422;49.296;6.900;2022-09-03T13:21:53;23.90;64.90
66568;DHT22;53422;49.296;6.900;2022-09-03T13:30:18;23.60;66.30
66568;DHT22;53422;49.296;6.900;2022-09-03T13:32:58;23.50;66.20
66568;DHT22;53422;49.296;6.900;2022-09-03T13:35:36;23.40;66.70
66568;DHT22;53422;49.296;6.900;2022-09-03T13:43:36;23.30;66.90
66568;DHT22;53422;49.296;6.900;2022-09-03T13:46:10;23.20;67.60
66568;DHT22;53422;49.296;6.900;2022-09-03T13:48:39;23.20;68.80
66568;DHT22;53422;49.296;6.900;2022-09-03T13:51:35;23.20;69.40
66568;DHT22;53422;49.296;6.900;2022-09-03T13:56:54;23.20;71.80
66568;DHT22;53422;49.296;6.900;2022-09-03T14:00:03;23.20;71.20
66568;DHT22;53422;49.296;6.900;2022-09-03T14:03:04;23.20;70.30
66568;DHT22;53422;49.296;6.900;2022-09-03T14:08:39;23.20;69.90
66568;DHT22;53422;49.296;6.900;2022-09-03T14:17:14;23.30;72.50
66568;DHT22;53422;49.296;6.900;2022-09-03T14:19:53;23.30;71.00
66568;DHT22;53422;49.296;6.900;2022-09-03T14:25:23;23.40;71.10
66568;DHT22;53422;49.296;6.900;2022-09-03T14:27:50;23.40;74.00
66568;DHT22;53422;49.296;6.900;2022-09-03T14:36:08;23.60;72.30
66568;DHT22;53422;49.296;6.900;2022-09-03T14:41:35;23.60;69.20
66568;DHT22;53422;49.296;6.900;2022-09-03T14:47:02;23.70;69.40
66568;DHT22;53422;49.296;6.900;2022-09-03T14:52:37;23.80;68.20
66568;DHT22;53422;49.296;6.900;2022-09-03T14:55:28;23.80;68.90
66568;DHT22;53422;49.296;6.900;2022-09-03T15:00:59;23.90;68.50
66568;DHT22;53422;49.296;6.900;2022-09-03T15:11:25;23.90;68.10
66568;DHT22;53422;49.296;6.900;2022-09-03T15:13:58;23.90;68.00
66568;DHT22;53422;49.296;6.900;2022-09-03T15:19:17;23.90;67.10
66568;DHT22;53422;49.296;6.900;2022-09-03T15:30:06;23.80;67.60
66568;DHT22;53422;49.296;6.900;2022-09-03T15:32:49;23.80;67.60
66568;DHT22;53422;49.296;6.900;2022-09-03T15:35:29;23.80;67.00
66568;DHT22;53422;49.296;6.900;2022-09-03T15:38:04;23.70;67.30
66568;DHT22;53422;49.296;6.900;2022-09-03T15:43:29;23.70;66.50
66568;DHT22;53422;49.296;6.900;2022-09-03T15:45:56;23.70;66.10
66568;DHT22;53422;49.296;6.900;2022-09-03T15:48:41;23.70;66.30
66568;DHT22;53422;49.296;6.900;2022-09-03T15:51:34;23.70;66.30
66568;DHT22;53422;49.296;6.900;2022-09-03T15:54:29;23.70;67.00
66568;DHT22;53422;49.296;6.900;2022-09-03T16:05:46;23.70;67.70
66568;DHT22;53422;49.296;6.900;2022-09-03T16:11:17;23.70;68.00
66568;DHT22;53422;49.296;6.900;2022-09-03T16:14:14;23.70;67.70
66568;DHT22;53422;49.296;6.900;2022-09-03T16:16:55;23.70;67.30
66568;DHT22;53422;49.296;6.900;2022-09-03T16:22:31;23.70;67.90
66568;DHT22;53422;49.296;6.900;2022-09-03T16:25:15;23.70;68.50
66568;DHT22;53422;49.296;6.900;2022-09-03T16:30:21;23.70;67.50
66568;DHT22;53422;49.296;6.900;2022-09-03T16:35:57;23.60;68.00
66568;DHT22;53422;49.296;6.900;2022-09-03T16:41:31;23.60;67.50
66568;DHT22;53422;49.296;6.900;2022-09-03T16:52:52;23.60;67.80
66568;DHT22;53422;49.296;6.900;2022-09-03T16:55:50;23.50;67.40
66568;DHT22;53422;49.296;6.900;2022-09-03T17:13:20;23.40;67.20
66568;DHT22;53422;49.296;6.900;2022-09-03T17:21:35;23.30;66.10
66568;DHT22;53422;49.296;6.900;2022-09-03T17:29:48;23.20;66.00
66568;DHT22;53422;49.296;6.900;2022-09-03T17:32:37;23.10;65.00
66568;DHT22;53422;49.296;6.900;2022-09-03T17:44:02;22.90;64.80
66568;DHT22;53422;49.296;6.900;2022-09-03T17:46:45;22.90;64.80
66568;DHT22;53422;49.296;6.900;2022-09-03T17:49:22;22.80;64.60
66568;DHT22;53422;49.296;6.900;2022-09-03T17:52:10;22.80;64.70
66568;DHT22;53422;49.296;6.900;2022-09-03T17:54:47;22.80;65.00
66568;DHT22;53422;49.296;6.900;2022-09-03T17:57:38;22.70;64.70
66568;DHT22;53422;49.296;6.900;2022-09-03T18:00:12;22.70;64.70
66568;DHT22;53422;49.296;6.900;2022-09-03T18:02:51;22.60;65.00
66568;DHT22;53422;49.296;6.900;2022-09-03T18:18:33;22.50;65.20
66568;DHT22;53422;49.296;6.900;2022-09-03T18:21:04;22.50;65.70
66568;DHT22;53422;49.296;6.900;2022-09-03T18:27:11;22.40;66.30
66568;DHT22;53422;49.296;6.900;2022-09-03T18:30:04;22.30;66.20
66568;DHT22;53422;49.296;6.900;2022-09-03T18:32:48;22.30;66.60
66568;DHT22;53422;49.296;6.900;2022-09-03T18:35:32;22.30;66.70
66568;DHT22;53422;49.296;6.900;2022-09-03T18:38:25;22.20;67.00
66568;DHT22;53422;49.296;6.900;2022-09-03T18:41:54;22.20;67.40
66568;DHT22;53422;49.296;6.900;2022-09-03T18:44:33;22.10;67.10
66568;DHT22;53422;49.296;6.900;2022-09-03T18:50:57;22.10;68.10
66568;DHT22;53422;49.296;6.900;2022-09-03T18:56:54;22.00;69.60
66568;DHT22;53422;49.296;6.900;2022-09-03T19:05:56;21.90;69.30
66568;DHT22;53422;49.296;6.900;2022-09-03T19:08:56;21.80;69.30
66568;DHT22;53422;49.296;6.900;2022-09-03T19:12:07;21.80;68.90
66568;DHT22;53422;49.296;6.900;2022-09-03T19:15:08;21.70;69.40
66568;DHT22;53422;49.296;6.900;2022-09-03T19:21:26;21.70;69.30
66568;DHT22;53422;49.296;6.900;2022-09-03T19:24:12;21.70;68.90
66568;DHT22;53422;49.296;6.900;2022-09-03T19:30:31;21.60;68.90
66568;DHT22;53422;49.296;6.900;2022-09-03T19:46:07;21.40;68.90
66568;DHT22;53422;49.296;6.900;2022-09-03T19:54:40;21.40;68.60
66568;DHT22;53422;49.296;6.900;2022-09-03T19:57:26;21.30;68.70
66568;DHT22;53422;49.296;6.900;2022-09-03T20:00:12;21.30;68.90
66568;DHT22;53422;49.296;6.900;2022-09-03T20:02:57;21.30;69.00
66568;DHT22;53422;49.296;6.900;2022-09-03T20:05:42;21.20;68.80
66568;DHT22;53422;49.296;6.900;2022-09-03T20:08:28;21.20;69.80
66568;DHT22;53422;49.296;6.900;2022-09-03T20:11:18;21.20;68.80
66568;DHT22;53422;49.296;6.900;2022-09-03T20:13:44;21.20;68.70
66568;DHT22;53422;49.296;6.900;2022-09-03T20:19:34;21.10;68.90
66568;DHT22;53422;49.296;6.900;2022-09-03T20:24:48;21.10;68.90
66568;DHT22;53422;49.296;6.900;2022-09-03T20:27:46;21.10;68.90
66568;DHT22;53422;49.296;6.900;2022-09-03T20:30:18;21.10;68.80
66568;DHT22;53422;49.296;6.900;2022-09-03T20:39:06;21.00;68.80
66568;DHT22;53422;49.296;6.900;2022-09-03T20:41:53;21.00;69.00
66568;DHT22;53422;49.296;6.900;2022-09-03T20:45:01;20.90;69.00
66568;DHT22;53422;49.296;6.900;2022-09-03T20:56:21;20.80;69.50
66568;DHT22;53422;49.296;6.900;2022-09-03T20:59:02;20.80;70.30
66568;DHT22;53422;49.296;6.900;2022-09-03T21:01:34;20.80;70.20
66568;DHT22;53422;49.296;6.900;2022-09-03T21:04:38;20.70;70.30
66568;DHT22;53422;49.296;6.900;2022-09-03T21:13:51;20.70;69.90
66568;DHT22;53422;49.296;6.900;2022-09-03T21:19:07;20.70;70.00
66568;DHT22;53422;49.296;6.900;2022-09-03T21:24:59;20.60;69.80
66568;DHT22;53422;49.296;6.900;2022-09-03T21:27:50;20.60;69.70
66568;DHT22;53422;49.296;6.900;2022-09-03T21:30:19;20.60;69.70
66568;DHT22;53422;49.296;6.900;2022-09-03T21:32:55;20.60;69.50
66568;DHT22;53422;49.296;6.900;2022-09-03T21:35:35;20.60;69.80
66568;DHT22;53422;49.296;6.900;2022-09-03T21:38:08;20.50;70.70
66568;DHT22;53422;49.296;6.900;2022-09-03T21:40:44;20.50;70.20
66568;DHT22;53422;49.296;6.900;2022-09-03T21:43:23;20.50;70.10
66568;DHT22;53422;49.296;6.900;2022-09-03T21:46:33;20.50;70.30
66568;DHT22;53422;49.296;6.900;2022-09-03T21:49:10;20.50;70.20
66568;DHT22;53422;49.296;6.900;2022-09-03T21:51:47;20.40;70.10
66568;DHT22;53422;49.296;6.900;2022-09-03T21:54:28;20.40;70.30
66568;DHT22;53422;49.296;6.900;2022-09-03T21:57:12;20.40;69.90
66568;DHT22;53422;49.296;6.900;2022-09-03T22:00:07;20.40;69.90
66568;DHT22;53422;49.296;6.900;2022-09-03T22:02:33;20.40;70.00
66568;DHT22;53422;49.296;6.900;2022-09-03T22:05:00;20.40;69.90
66568;DHT22;53422;49.296;6.900;2022-09-03T22:15:44;20.30;70.30
66568;DHT22;53422;49.296;6.900;2022-09-03T22:18:21;20.30;70.20
66568;DHT22;53422;49.296;6.900;2022-09-03T22:32:21;20.20;70.40
66568;DHT22;53422;49.296;6.900;2022-09-03T22:38:38;20.20;70.50
66568;DHT22;53422;49.296;6.900;2022-09-03T22:47:17;20.10;71.10
66568;DHT22;53422;49.296;6.900;2022-09-03T22:50:00;20.10;70.70
66568;DHT22;53422;49.296;6.900;2022-09-03T22:52:55;20.00;71.00